Time;durP1;ratioP1;P1;durP2;ratioP2;P2;SDS_P1;SDS_P2;PMS_P1;PMS_P2;Temp;Humidity;BMP_temperature;BMP_pressure;BME280_temperature;BME280_humidity;BME280_pressure;Samples;Min_cycle;Max_cycle;Signal;HPM_P1;HPM_P2
2022/11/23 00:01:34;;;;;;;1999.90;999.90;;;10.20;99.90;;;;;;5034869;28;20214;-69
2022/11/23 00:04:02;;;;;;;1999.90;999.90;;;10.20;99.90;;;;;;5034779;28;20182;-69
2022/11/23 00:06:28;;;;;;;1999.90;999.90;;;10.10;99.90;;;;;;5034619;28;21034;-69
2022/11/23 00:08:54;;;;;;;1999.90;999.90;;;10.20;99.90;;;;;;5034534;28;20509;-69
2022/11/23 00:11:21;;;;;;;1999.90;999.90;;;10.20;99.90;;;;;;5034568;28;20174;-69
2022/11/23 00:13:47;;;;;;;1999.90;999.90;;;10.20;99.90;;;;;;5034912;28;20812;-69
2022/11/23 00:16:15;;;;;;;1999.90;999.90;;;10.20;99.90;;;;;;5034544;28;20400;-69
2022/11/23 00:18:40;;;;;;;1999.90;999.90;;;10.10;99.90;;;;;;5034398;28;20327;-69
2022/11/23 00:21:16;;;;;;;1999.90;999.90;;;10.20;99.90;;;;;;5034512;28;20512;-69
2022/11/23 00:23:43;;;;;;;1999.90;999.90;;;10.20;99.90;;;;;;5034423;28;20202;-69
2022/11/23 00:26:09;;;;;;;1999.90;999.90;;;10.20;99.90;;;;;;5034330;28;20493;-69
2022/11/23 00:28:37;;;;;;;1999.90;999.90;;;10.30;99.90;;;;;;5034266;28;20458;-69
2022/11/23 00:31:04;;;;;;;1999.90;999.90;;;10.30;99.90;;;;;;5034268;28;20959;-69
2022/11/23 00:33:29;;;;;;;1999.90;999.90;;;10.20;99.90;;;;;;5034174;28;20516;-69
2022/11/23 00:36:02;;;;;;;1999.90;999.90;;;10.30;99.90;;;;;;5034169;28;20464;-69
2022/11/23 00:38:28;;;;;;;1999.90;999.90;;;10.30;99.90;;;;;;5033876;28;20187;-69
2022/11/23 00:41:02;;;;;;;1999.90;999.90;;;10.30;99.90;;;;;;5034052;28;20425;-69
2022/11/23 00:43:29;;;;;;;1999.90;999.90;;;10.20;99.90;;;;;;5033999;28;20426;-69
2022/11/23 00:46:13;;;;;;;1999.90;999.90;;;10.20;99.90;;;;;;5033962;28;20452;-69
2022/11/23 00:48:38;;;;;;;1999.90;999.90;;;10.20;99.90;;;;;;5033710;28;20790;-69
2022/11/23 00:51:07;;;;;;;1999.90;999.90;;;10.20;99.90;;;;;;5033986;28;20922;-69
2022/11/23 00:53:33;;;;;;;1999.90;999.90;;;10.30;99.90;;;;;;5033774;28;20586;-69
2022/11/23 00:55:59;;;;;;;1999.90;999.90;;;10.20;99.90;;;;;;5033044;28;20507;-69
2022/11/23 00:58:25;;;;;;;1999.90;999.90;;;10.30;99.90;;;;;;5033717;28;20499;-69
2022/11/23 01:00:59;;;;;;;1999.90;999.90;;;10.30;99.90;;;;;;5033790;28;20183;-69
2022/11/23 01:03:25;;;;;;;1999.90;999.90;;;10.30;99.90;;;;;;5033659;28;20528;-69
2022/11/23 01:05:51;;;;;;;1999.90;999.90;;;10.30;99.90;;;;;;5033592;28;20501;-69
2022/11/23 01:08:16;;;;;;;1999.90;999.90;;;10.30;99.90;;;;;;5033471;28;20215;-69
2022/11/23 01:10:42;;;;;;;1999.90;999.90;;;10.30;99.90;;;;;;5033594;28;20702;-69
2022/11/23 01:13:07;;;;;;;1999.90;999.90;;;10.20;99.90;;;;;;5033522;28;20225;-68
2022/11/23 01:15:33;;;;;;;1999.90;999.90;;;10.30;99.90;;;;;;5033467;28;20206;-69
2022/11/23 01:17:58;;;;;;;1999.90;999.90;;;10.20;99.90;;;;;;5033063;28;20230;-69
2022/11/23 01:20:24;;;;;;;1999.90;999.90;;;10.20;99.90;;;;;;5033631;28;20179;-69
2022/11/23 01:22:52;;;;;;;1999.90;999.90;;;10.20;99.90;;;;;;5033279;28;20206;-69
2022/11/23 01:25:17;;;;;;;1999.90;999.90;;;10.20;99.90;;;;;;5033427;28;20523;-69
2022/11/23 01:27:43;;;;;;;1999.90;999.90;;;10.10;99.90;;;;;;5032963;28;20473;-69
2022/11/23 01:30:09;;;;;;;1999.90;999.90;;;10.20;99.90;;;;;;5033248;28;20187;-69
2022/11/23 01:32:35;;;;;;;1999.90;999.90;;;10.20;99.90;;;;;;5032996;28;20196;-69
2022/11/23 01:35:00;;;;;;;1999.90;999.90;;;10.20;99.90;;;;;;5033233;28;20416;-69
2022/11/23 01:37:26;;;;;;;1999.90;999.90;;;10.20;99.90;;;;;;5032804;28;20179;-69
2022/11/23 01:39:51;;;;;;;1999.90;999.90;;;10.30;99.90;;;;;;5032963;28;20185;-69
2022/11/23 01:42:17;;;;;;;1999.90;999.90;;;10.30;99.90;;;;;;5032922;28;20203;-69
2022/11/23 01:44:43;;;;;;;1999.90;999.90;;;10.30;99.90;;;;;;5033081;28;20253;-69
2022/11/23 01:47:09;;;;;;;1999.90;999.90;;;10.30;99.90;;;;;;5032605;28;20202;-69
2022/11/23 01:49:48;;;;;;;1999.90;999.90;;;10.30;99.90;;;;;;5032984;28;20172;-69
2022/11/23 01:52:20;;;;;;;1999.90;999.90;;;10.30;99.90;;;;;;5032579;28;20446;-69
2022/11/23 01:54:50;;;;;;;1999.90;999.90;;;10.20;99.90;;;;;;5032746;28;20437;-69
2022/11/23 01:57:20;;;;;;;1999.90;999.90;;;10.20;99.90;;;;;;5032526;28;20410;-69
2022/11/23 01:59:47;;;;;;;1999.90;999.90;;;10.20;99.90;;;;;;5032666;28;20410;-69
2022/11/23 02:02:14;;;;;;;1999.90;999.90;;;10.30;99.90;;;;;;5032549;28;20426;-69
2022/11/23 02:04:42;;;;;;;1999.90;999.90;;;10.20;99.90;;;;;;5032551;28;20417;-69
2022/11/23 02:07:08;;;;;;;1999.90;999.90;;;10.30;99.90;;;;;;5032297;28;20502;-69
2022/11/23 02:09:35;;;;;;;1999.90;999.90;;;10.30;99.90;;;;;;5032402;28;20411;-69
2022/11/23 02:12:01;;;;;;;1999.90;999.90;;;10.30;99.90;;;;;;5032365;28;20524;-69
2022/11/23 02:14:27;;;;;;;1999.90;999.90;;;10.30;99.90;;;;;;5032422;28;20446;-69
2022/11/23 02:16:54;;;;;;;1999.90;999.90;;;10.30;99.90;;;;;;5032358;28;20301;-69
2022/11/23 02:19:41;;;;;;;1999.90;999.90;;;10.20;99.90;;;;;;5032342;28;20425;-69
2022/11/23 02:22:12;;;;;;;1999.90;999.90;;;10.30;99.90;;;;;;5032257;28;20524;-69
2022/11/23 02:24:45;;;;;;;1999.90;999.90;;;10.30;99.90;;;;;;5032256;28;20967;-69
2022/11/23 02:27:12;;;;;;;1999.90;999.90;;;10.30;99.90;;;;;;5031995;28;20457;-69
2022/11/23 02:29:38;;;;;;;1999.90;999.90;;;10.30;99.90;;;;;;5032116;28;20413;-69
2022/11/23 02:32:03;;;;;;;1999.90;999.90;;;10.30;99.90;;;;;;5032098;28;20418;-69
2022/11/23 02:34:29;;;;;;;1999.90;999.90;;;10.20;99.90;;;;;;5032108;28;20406;-69
2022/11/23 02:36:56;;;;;;;1999.90;999.90;;;10.10;99.90;;;;;;5031842;28;20288;-69
2022/11/23 02:39:33;;;;;;;1999.90;999.90;;;10.10;99.90;;;;;;5031987;28;20180;-69
2022/11/23 02:41:59;;;;;;;1999.90;999.90;;;10.10;99.90;;;;;;5032068;28;20522;-69
2022/11/23 02:44:47;;;;;;;1999.90;999.90;;;10.00;99.90;;;;;;5032054;28;20500;-69
2022/11/23 02:47:13;;;;;;;1999.90;999.90;;;10.10;99.90;;;;;;5031765;28;20947;-69
2022/11/23 02:49:40;;;;;;;1999.90;999.90;;;10.10;99.90;;;;;;5031807;28;20409;-69
2022/11/23 02:52:07;;;;;;;1999.90;999.90;;;10.00;99.90;;;;;;5031771;28;20445;-69
2022/11/23 02:54:32;;;;;;;1999.90;999.90;;;10.10;99.90;;;;;;5031914;28;20402;-69
2022/11/23 02:56:58;;;;;;;1999.90;999.90;;;10.00;99.90;;;;;;5031692;28;20416;-69
2022/11/23 02:59:24;;;;;;;1999.90;999.90;;;10.00;99.90;;;;;;5031947;28;20206;-69
2022/11/23 03:01:49;;;;;;;1999.90;999.90;;;10.00;99.90;;;;;;5031804;28;20194;-69
2022/11/23 03:04:15;;;;;;;1999.90;999.90;;;10.00;99.90;;;;;;5031810;28;20195;-69
2022/11/23 03:06:41;;;;;;;1999.90;999.90;;;10.00;99.90;;;;;;5031475;28;20171;-69
2022/11/23 03:09:07;;;;;;;1999.90;999.90;;;10.00;99.90;;;;;;5031750;28;20246;-69
2022/11/23 03:11:33;;;;;;;1999.90;999.90;;;10.00;99.90;;;;;;5031775;28;20422;-69
2022/11/23 03:13:58;;;;;;;1999.90;999.90;;;10.10;99.90;;;;;;5031815;28;20415;-69
2022/11/23 03:16:24;;;;;;;1999.90;999.90;;;10.10;99.90;;;;;;5031684;28;20175;-69
2022/11/23 03:18:50;;;;;;;1999.90;999.90;;;10.10;99.90;;;;;;5033983;28;20184;-69
2022/11/23 03:21:16;;;;;;;1999.90;999.90;;;10.10;99.90;;;;;;5035566;28;20226;-69
2022/11/23 03:23:41;;;;;;;1999.90;999.90;;;10.10;99.90;;;;;;5035743;28;20638;-69
2022/11/23 03:26:07;;;;;;;1999.90;999.90;;;10.10;99.90;;;;;;5035494;28;20187;-69
2022/11/23 03:28:33;;;;;;;1999.90;999.90;;;10.10;99.90;;;;;;5035314;28;20205;-69
2022/11/23 03:30:58;;;;;;;1999.90;999.90;;;10.10;99.90;;;;;;5035492;28;20414;-69
2022/11/23 03:33:24;;;;;;;1999.90;999.90;;;10.10;99.90;;;;;;5035321;28;20201;-69
2022/11/23 03:35:50;;;;;;;1999.90;999.90;;;10.10;99.90;;;;;;5035265;28;20171;-69
2022/11/23 03:38:15;;;;;;;1999.90;999.90;;;10.10;99.90;;;;;;5035225;28;20177;-69
2022/11/23 03:40:44;;;;;;;1999.90;999.90;;;10.10;99.90;;;;;;5035288;28;20538;-70
2022/11/23 03:43:11;;;;;;;1999.90;999.90;;;10.10;99.90;;;;;;5035232;28;20238;-69
2022/11/23 03:45:36;;;;;;;1999.90;999.90;;;10.10;99.90;;;;;;5035133;28;20413;-69
2022/11/23 03:48:02;;;;;;;1999.90;999.90;;;10.20;99.90;;;;;;5034822;28;20475;-69
2022/11/23 03:50:28;;;;;;;1999.90;999.90;;;10.20;99.90;;;;;;5035157;28;20528;-69
2022/11/23 03:52:54;;;;;;;1999.90;999.90;;;10.20;99.90;;;;;;5034834;28;20222;-69
2022/11/23 03:55:20;;;;;;;1999.90;999.90;;;10.20;99.90;;;;;;5035023;28;20472;-69
2022/11/23 03:57:49;;;;;;;1999.90;999.90;;;10.20;99.90;;;;;;5034680;28;20901;-69
2022/11/23 04:00:15;;;;;;;1999.90;999.90;;;10.20;99.90;;;;;;5034967;28;20214;-69
2022/11/23 04:02:42;;;;;;;1999.90;999.90;;;10.20;99.90;;;;;;5034787;28;20428;-69
2022/11/23 04:05:08;;;;;;;1999.90;999.90;;;10.20;99.90;;;;;;5034854;28;20445;-69
2022/11/23 04:07:34;;;;;;;1999.90;999.90;;;10.20;99.90;;;;;;5034430;28;20457;-69
2022/11/23 04:10:00;;;;;;;1999.90;999.90;;;10.20;99.90;;;;;;5034786;28;20513;-69
2022/11/23 04:12:26;;;;;;;1999.90;999.90;;;10.10;99.90;;;;;;5034680;28;20466;-69
2022/11/23 04:14:51;;;;;;;1999.90;999.90;;;10.20;99.90;;;;;;5034625;28;20182;-69
2022/11/23 04:17:17;;;;;;;1999.90;999.90;;;10.30;99.90;;;;;;5034441;28;20224;-69
2022/11/23 04:19:43;;;;;;;1999.90;999.90;;;10.20;99.90;;;;;;5034591;28;20193;-69
2022/11/23 04:22:09;;;;;;;1999.90;999.90;;;10.20;99.90;;;;;;5034461;28;20430;-69
2022/11/23 04:24:35;;;;;;;1999.90;999.90;;;10.20;99.90;;;;;;5034488;28;20647;-69
2022/11/23 04:27:00;;;;;;;1999.90;999.90;;;10.20;99.90;;;;;;5034175;28;20207;-69
2022/11/23 04:29:26;;;;;;;1999.90;999.90;;;10.20;99.90;;;;;;5033181;28;20180;-69
2022/11/23 04:31:51;;;;;;;1999.90;999.90;;;10.20;99.90;;;;;;5034198;28;20195;-69
2022/11/23 04:34:17;;;;;;;1999.90;999.90;;;10.10;99.90;;;;;;5034286;28;20191;-69
2022/11/23 04:36:43;;;;;;;1999.90;999.90;;;10.00;99.90;;;;;;5034072;28;20174;-69
2022/11/23 04:39:11;;;;;;;1999.90;999.90;;;10.00;99.90;;;;;;5034134;28;20181;-69
2022/11/23 04:41:37;;;;;;;1999.90;999.90;;;10.00;99.90;;;;;;5034202;28;20609;-69
2022/11/23 04:44:02;;;;;;;1999.90;999.90;;;9.90;99.90;;;;;;5034128;28;20509;-69
2022/11/23 04:46:28;;;;;;;1999.90;999.90;;;9.90;99.90;;;;;;5033973;28;20175;-69
2022/11/23 04:48:53;;;;;;;1999.90;999.90;;;9.90;99.90;;;;;;5033745;28;20289;-69
2022/11/23 04:51:19;;;;;;;1999.90;999.90;;;9.90;99.90;;;;;;5034019;28;20183;-69
2022/11/23 04:53:45;;;;;;;1999.90;999.90;;;9.90;99.90;;;;;;5033980;28;20179;-69
2022/11/23 04:56:10;;;;;;;1999.90;999.90;;;9.80;99.90;;;;;;5033826;28;20301;-69
2022/11/23 04:58:36;;;;;;;1999.90;999.90;;;9.80;99.90;;;;;;5033632;28;20178;-69
2022/11/23 05:01:01;;;;;;;1999.90;999.90;;;9.80;99.90;;;;;;5033795;28;20174;-69
2022/11/23 05:03:27;;;;;;;1999.90;999.90;;;9.90;99.90;;;;;;5033700;28;20190;-69
2022/11/23 05:05:56;;;;;;;1999.90;999.90;;;9.80;99.90;;;;;;5033664;28;20713;-69
2022/11/23 05:08:22;;;;;;;1999.90;999.90;;;9.80;99.90;;;;;;5033408;28;20253;-69
2022/11/23 05:10:47;;;;;;;1999.90;999.90;;;9.80;99.90;;;;;;5033684;28;20416;-70
2022/11/23 05:13:13;;;;;;;1999.90;999.90;;;9.80;99.90;;;;;;5033494;28;20561;-69
2022/11/23 05:15:39;;;;;;;1999.90;999.90;;;9.80;99.90;;;;;;5033542;28;20164;-69
2022/11/23 05:18:06;;;;;;;1999.90;999.90;;;9.90;99.90;;;;;;5033187;28;20413;-69
2022/11/23 05:20:32;;;;;;;1999.90;999.90;;;9.90;99.90;;;;;;5033481;28;20169;-69
2022/11/23 05:22:57;;;;;;;1999.90;999.90;;;9.90;99.90;;;;;;5033404;28;20547;-69
2022/11/23 05:25:24;;;;;;;1999.90;999.90;;;9.90;99.90;;;;;;5033360;28;20815;-69
2022/11/23 05:27:50;;;;;;;1999.90;999.90;;;9.90;99.90;;;;;;5032878;28;20195;-69
2022/11/23 05:30:16;;;;;;;1999.90;999.90;;;9.90;99.90;;;;;;5033355;28;20468;-69
2022/11/23 05:32:41;;;;;;;1999.90;999.90;;;9.90;99.90;;;;;;5033041;28;20438;-69
2022/11/23 05:35:08;;;;;;;1999.90;999.90;;;9.90;99.90;;;;;;5033234;28;20176;-70
2022/11/23 05:37:33;;;;;;;1999.90;999.90;;;9.90;99.90;;;;;;5032813;28;20166;-70
2022/11/23 05:39:59;;;;;;;1999.90;999.90;;;9.90;99.90;;;;;;5033036;28;20462;-70
2022/11/23 05:42:25;;;;;;;1999.90;999.90;;;9.90;99.90;;;;;;5032660;28;20197;-70
2022/11/23 05:44:50;;;;;;;1999.90;999.90;;;9.90;99.90;;;;;;5032965;28;20733;-70
2022/11/23 05:47:16;;;;;;;1999.90;999.90;;;9.90;99.90;;;;;;5032879;28;20193;-70
2022/11/23 05:49:42;;;;;;;1999.90;999.90;;;9.90;99.90;;;;;;5032855;28;20196;-69
2022/11/23 05:52:07;;;;;;;1999.90;999.90;;;9.90;99.90;;;;;;5033131;28;20432;-69
2022/11/23 05:54:34;;;;;;;1999.90;999.90;;;9.90;99.90;;;;;;5032839;28;20163;-70
2022/11/23 05:56:59;;;;;;;1999.90;999.90;;;9.80;99.90;;;;;;5032498;28;20174;-70
2022/11/23 05:59:25;;;;;;;1999.90;999.90;;;9.80;99.90;;;;;;5032581;28;20529;-69
2022/11/23 06:01:51;;;;;;;1999.90;999.90;;;9.80;99.90;;;;;;5032547;28;20195;-69
2022/11/23 06:04:16;;;;;;;1999.90;999.90;;;9.70;99.90;;;;;;5032795;28;20263;-69
2022/11/23 06:06:42;;;;;;;1999.90;999.90;;;9.70;99.90;;;;;;5032345;28;20404;-69
2022/11/23 06:09:07;;;;;;;1999.90;999.90;;;9.70;99.90;;;;;;5032471;28;20692;-69
2022/11/23 06:11:34;;;;;;;1999.90;999.90;;;9.70;99.90;;;;;;5032404;28;20207;-69
2022/11/23 06:14:00;;;;;;;1999.90;999.90;;;9.60;99.90;;;;;;5032695;28;20566;-69
2022/11/23 06:16:25;;;;;;;1999.90;999.90;;;9.60;99.90;;;;;;5032302;28;20408;-69
2022/11/23 06:18:51;;;;;;;1999.90;999.90;;;9.60;99.90;;;;;;5032312;28;20457;-69
2022/11/23 06:21:17;;;;;;;1999.90;999.90;;;9.60;99.90;;;;;;5032383;28;20170;-70
2022/11/23 06:23:43;;;;;;;1999.90;999.90;;;9.60;99.90;;;;;;5032339;28;20173;-70
2022/11/23 06:26:08;;;;;;;1999.90;999.90;;;9.50;99.90;;;;;;5032147;28;20496;-70
2022/11/23 06:28:35;;;;;;;1999.90;999.90;;;9.50;99.90;;;;;;5032059;28;20561;-70
2022/11/23 06:31:04;;;;;;;1999.90;999.90;;;9.50;99.90;;;;;;5032162;28;20244;-70
2022/11/23 06:33:29;;;;;;;1999.90;999.90;;;9.40;99.90;;;;;;5032207;28;20480;-69
2022/11/23 06:35:57;;;;;;;1999.90;999.90;;;9.30;99.90;;;;;;5032069;28;20414;-70
2022/11/23 06:38:23;;;;;;;1999.90;999.90;;;9.40;99.90;;;;;;5031987;28;20225;-70
2022/11/23 06:40:48;;;;;;;1999.90;999.90;;;9.40;99.90;;;;;;5032015;28;20416;-69
2022/11/23 06:43:14;;;;;;;1999.90;999.90;;;9.30;99.90;;;;;;5031968;28;20458;-69
2022/11/23 06:45:40;;;;;;;1999.90;999.90;;;9.30;99.90;;;;;;5031923;28;20231;-69
2022/11/23 06:48:05;;;;;;;1999.90;999.90;;;9.30;99.90;;;;;;5031690;28;20301;-69
2022/11/23 06:50:31;;;;;;;1999.90;999.90;;;9.30;99.90;;;;;;5032005;28;20174;-70
2022/11/23 06:52:57;;;;;;;1999.90;999.90;;;9.30;99.90;;;;;;5031089;28;20220;-69
2022/11/23 06:55:24;;;;;;;1999.90;999.90;;;9.30;99.90;;;;;;5031928;28;20172;-69
2022/11/23 06:57:50;;;;;;;1999.90;999.90;;;9.20;99.90;;;;;;5031593;28;20425;-69
2022/11/23 07:00:16;;;;;;;1999.90;999.90;;;9.20;99.90;;;;;;5031826;28;20886;-69
2022/11/23 07:02:42;;;;;;;1999.90;999.90;;;9.10;99.90;;;;;;5031731;28;20197;-70
2022/11/23 07:05:08;;;;;;;1999.90;999.90;;;9.10;99.90;;;;;;5031899;28;20494;-70
2022/11/23 07:07:34;;;;;;;1999.90;999.90;;;9.10;99.90;;;;;;5031511;28;20208;-70
2022/11/23 07:09:59;;;;;;;1999.90;999.90;;;9.10;99.90;;;;;;5031700;28;20416;-69
2022/11/23 07:12:25;;;;;;;1999.90;999.90;;;9.10;99.90;;;;;;5031841;28;20269;-69
2022/11/23 07:14:51;;;;;;;1999.90;999.90;;;9.10;99.90;;;;;;5032988;28;20166;-69
2022/11/23 07:17:16;;;;;;;1999.90;999.90;;;9.10;99.90;;;;;;5033219;28;20408;-68
2022/11/23 07:19:42;;;;;;;1999.90;999.90;;;9.10;99.90;;;;;;5032755;28;20624;-69
2022/11/23 07:22:07;;;;;;;1999.90;999.90;;;9.10;99.90;;;;;;5032671;28;20193;-69
2022/11/23 07:24:33;;;;;;;1999.90;999.90;;;9.10;99.90;;;;;;5032516;28;20222;-69
2022/11/23 07:26:59;;;;;;;1999.90;999.90;;;9.10;99.90;;;;;;5032375;28;20224;-69
2022/11/23 07:29:24;;;;;;;1999.90;999.90;;;9.00;99.90;;;;;;5032659;28;20255;-68
2022/11/23 07:31:50;;;;;;;1999.90;999.90;;;9.00;99.90;;;;;;5029205;28;20196;-69
2022/11/23 07:34:15;;;;;;;1999.90;999.90;;;9.00;99.90;;;;;;5032142;28;20168;-68
2022/11/23 07:36:41;;;;;;;1999.90;999.90;;;8.90;99.90;;;;;;5031866;28;20178;-69
2022/11/23 07:39:07;;;;;;;1999.90;999.90;;;8.90;99.90;;;;;;5031371;28;20169;-69
2022/11/23 07:41:32;;;;;;;1999.90;999.90;;;8.90;99.90;;;;;;5031783;28;20185;-69
2022/11/23 07:43:58;;;;;;;1999.90;999.90;;;8.90;99.90;;;;;;5031674;28;20653;-69
2022/11/23 07:46:23;;;;;;;1999.90;999.90;;;8.90;99.90;;;;;;5031441;28;20167;-69
2022/11/23 07:48:49;;;;;;;1999.90;999.90;;;8.90;99.90;;;;;;5032085;28;20203;-69
2022/11/23 07:51:15;;;;;;;1999.90;999.90;;;8.90;99.90;;;;;;5031902;28;20176;-69
2022/11/23 07:53:41;;;;;;;1999.90;999.90;;;8.90;99.90;;;;;;5031856;28;20173;-69
2022/11/23 07:56:07;;;;;;;1999.90;999.90;;;9.00;99.90;;;;;;5031978;28;20402;-69
2022/11/23 07:58:33;;;;;;;1999.90;999.90;;;9.00;99.90;;;;;;5031810;28;20169;-69
2022/11/23 08:00:59;;;;;;;1999.90;999.90;;;9.00;99.90;;;;;;5031417;28;20865;-69
2022/11/23 08:03:24;;;;;;;1999.90;999.90;;;9.00;99.90;;;;;;5031885;28;20473;-69
2022/11/23 08:05:50;;;;;;;1999.90;999.90;;;9.10;99.90;;;;;;5036003;28;20518;-69
2022/11/23 08:08:16;;;;;;;1999.90;999.90;;;9.10;99.90;;;;;;5034006;28;20461;-69
2022/11/23 08:10:41;;;;;;;1999.90;999.90;;;9.00;99.90;;;;;;5034869;28;20163;-69
2022/11/23 08:13:07;;;;;;;1999.90;999.90;;;9.10;99.90;;;;;;5034821;28;20696;-69
2022/11/23 08:15:32;;;;;;;1999.90;999.90;;;9.10;99.90;;;;;;5034695;28;20166;-69
2022/11/23 08:18:00;;;;;;;1999.90;999.90;;;9.10;99.90;;;;;;5035001;28;20161;-69
2022/11/23 08:20:27;;;;;;;1999.90;999.90;;;9.10;99.90;;;;;;5034558;28;20168;-69
2022/11/23 08:22:54;;;;;;;1999.90;999.90;;;9.10;99.90;;;;;;5033779;28;20500;-69
2022/11/23 08:25:24;;;;;;;1999.90;999.90;;;9.10;99.90;;;;;;5034382;28;20906;-69
2022/11/23 08:28:03;;;;;;;1999.90;999.90;;;9.20;99.90;;;;;;5034459;28;20486;-69
2022/11/23 08:30:30;;;;;;;1999.90;999.90;;;9.20;99.90;;;;;;5034280;28;20407;-69
2022/11/23 08:32:56;;;;;;;1999.90;999.90;;;9.30;99.90;;;;;;5034231;28;20426;-69
2022/11/23 08:35:22;;;;;;;1999.90;999.90;;;9.40;99.90;;;;;;5034102;28;20414;-69
2022/11/23 08:37:48;;;;;;;1999.90;999.90;;;9.30;99.90;;;;;;5033788;28;20441;-69
2022/11/23 08:40:14;;;;;;;1999.90;999.90;;;9.40;99.90;;;;;;5034672;28;20439;-69
2022/11/23 08:42:40;;;;;;;1999.90;999.90;;;9.40;99.90;;;;;;5034617;28;20465;-69
2022/11/23 08:45:06;;;;;;;1999.90;999.90;;;9.50;99.90;;;;;;5033614;28;20170;-69
2022/11/23 08:47:33;;;;;;;1999.90;999.90;;;9.50;99.90;;;;;;5034200;28;20638;-69
2022/11/23 08:49:58;;;;;;;1999.90;999.90;;;9.50;99.90;;;;;;5034770;28;20406;-69
2022/11/23 08:52:25;;;;;;;1999.90;999.90;;;9.50;99.90;;;;;;5034100;28;20451;-69
2022/11/23 08:54:50;;;;;;;1999.90;999.90;;;9.60;99.90;;;;;;5034728;28;20190;-69
2022/11/23 08:57:16;;;;;;;1999.90;999.90;;;9.60;99.90;;;;;;5034198;28;20409;-69
2022/11/23 08:59:42;;;;;;;1999.90;999.90;;;9.60;99.90;;;;;;5033571;28;20182;-69
2022/11/23 09:02:11;;;;;;;1999.90;999.90;;;9.60;99.90;;;;;;5034246;28;20227;-69
2022/11/23 09:04:38;;;;;;;1999.90;999.90;;;9.60;99.90;;;;;;5034090;28;20604;-69
2022/11/23 09:07:03;;;;;;;1999.90;999.90;;;9.60;99.90;;;;;;5033495;28;20450;-69
2022/11/23 09:09:29;;;;;;;1999.90;999.90;;;9.70;99.90;;;;;;5034182;28;20635;-69
2022/11/23 09:11:55;;;;;;;1999.90;999.90;;;9.80;99.90;;;;;;5033551;28;20208;-69
2022/11/23 09:14:21;;;;;;;1999.90;999.90;;;9.80;99.90;;;;;;5032854;28;20175;-69
2022/11/23 09:16:46;;;;;;;1999.90;999.90;;;9.90;99.90;;;;;;5032427;28;20178;-69
2022/11/23 09:19:13;;;;;;;1999.90;999.90;;;9.90;99.90;;;;;;5032940;28;20764;-69
2022/11/23 09:21:38;;;;;;;1999.90;999.90;;;10.00;99.90;;;;;;5032579;28;20187;-69
2022/11/23 09:24:04;;;;;;;1999.90;999.90;;;10.10;99.90;;;;;;5033145;28;20930;-70
2022/11/23 09:26:32;;;;;;;1999.90;999.90;;;10.10;99.90;;;;;;5032982;28;20670;-69
2022/11/23 09:28:58;;;;;;;1999.90;999.90;;;10.10;99.90;;;;;;5032259;28;20211;-69
2022/11/23 09:31:27;;;;;;;1999.90;999.90;;;10.10;99.90;;;;;;5032884;28;20509;-69
2022/11/23 09:33:53;;;;;;;1999.90;999.90;;;10.20;99.90;;;;;;5032732;28;20407;-69
2022/11/23 09:36:18;;;;;;;1999.90;999.90;;;10.30;99.90;;;;;;5032467;28;20456;-69
2022/11/23 09:38:44;;;;;;;1999.90;999.90;;;10.30;99.90;;;;;;5032760;28;20587;-69
2022/11/23 09:41:24;;;;;;;1999.90;999.90;;;10.30;99.90;;;;;;5032523;28;20186;-69
2022/11/23 09:44:01;;;;;;;1999.90;999.90;;;10.40;99.90;;;;;;5032260;28;20181;-69
2022/11/23 09:46:50;;;;;;;1999.90;999.90;;;10.50;99.90;;;;;;5032395;28;20411;-69
2022/11/23 09:49:19;;;;;;;1999.90;999.90;;;10.60;99.90;;;;;;5032550;28;20412;-69
2022/11/23 09:51:45;;;;;;;1999.90;999.90;;;10.60;99.90;;;;;;5031857;28;20442;-70
2022/11/23 09:54:35;;;;;;;1999.90;999.90;;;10.70;99.90;;;;;;5032442;28;20917;-69
2022/11/23 09:57:03;;;;;;;1999.90;999.90;;;10.70;99.90;;;;;;5032404;28;20776;-69
2022/11/23 09:59:29;;;;;;;1999.90;999.90;;;10.80;99.90;;;;;;5031820;28;20405;-69
2022/11/23 10:01:55;;;;;;;1999.90;999.90;;;11.00;99.90;;;;;;5032212;28;20418;-69
2022/11/23 10:04:22;;;;;;;1999.90;999.90;;;11.10;99.90;;;;;;5032225;28;20171;-70
2022/11/23 10:06:56;;;;;;;1999.90;999.90;;;11.20;99.90;;;;;;5031508;28;20406;-69
2022/11/23 10:09:37;;;;;;;1999.90;999.90;;;11.20;99.90;;;;;;5032468;28;20502;-69
2022/11/23 10:12:25;;;;;;;1999.90;999.90;;;11.00;99.90;;;;;;5032146;28;20434;-69
2022/11/23 10:15:01;;;;;;;1999.90;999.90;;;11.00;99.90;;;;;;5031674;28;20440;-69
2022/11/23 10:17:39;;;;;;;1999.90;999.90;;;10.90;99.90;;;;;;5031811;28;20406;-69
2022/11/23 10:20:28;;;;;;;1999.90;999.90;;;10.90;99.90;;;;;;5031982;28;20971;-69
2022/11/23 10:23:01;;;;;;;1999.90;999.90;;;11.00;99.90;;;;;;5003321;28;20437;-69
2022/11/23 10:25:46;;;;;;;1999.90;999.90;;;11.20;99.90;;;;;;5031878;28;20564;-69
2022/11/23 10:28:14;;;;;;;1999.90;999.90;;;11.30;99.90;;;;;;5030278;28;20457;-69
2022/11/23 10:30:40;;;;;;;1999.90;999.90;;;11.40;99.90;;;;;;5031795;28;20968;-69
2022/11/23 10:33:30;;;;;;;1999.90;999.90;;;11.50;99.90;;;;;;5031783;28;20423;-69
2022/11/23 10:35:56;;;;;;;1999.90;999.90;;;11.60;99.90;;;;;;5031325;28;20435;-69
2022/11/23 10:38:26;;;;;;;1999.90;999.90;;;11.80;99.90;;;;;;5031493;28;20442;-70
2022/11/23 10:41:12;;;;;;;1999.90;999.90;;;11.90;99.90;;;;;;5031722;28;20169;-70
2022/11/23 10:43:51;;;;;;;1999.90;999.90;;;11.90;99.90;;;;;;5031081;28;20422;-69
2022/11/23 10:46:30;;;;;;;1999.90;999.90;;;12.00;99.90;;;;;;5031642;28;20399;-69
2022/11/23 10:49:16;;;;;;;1999.90;999.90;;;11.90;99.90;;;;;;5031509;28;20457;-69
2022/11/23 10:52:27;;;;;;;1999.90;999.90;;;11.90;99.90;;;;;;5029007;28;20451;-68
2022/11/23 10:54:56;;;;;;;1999.90;999.90;;;12.00;99.90;;;;;;5027069;28;20419;-67
2022/11/23 10:57:41;;;;;;;1999.90;999.90;;;11.90;99.90;;;;;;5031214;28;20408;-67
2022/11/23 11:00:11;;;;;;;1999.90;999.90;;;11.90;99.90;;;;;;5031259;28;20429;-67
2022/11/23 11:02:39;;;;;;;1999.90;999.90;;;12.10;99.90;;;;;;5031592;28;20434;-68
2022/11/23 11:05:30;;;;;;;1999.90;999.90;;;12.00;99.90;;;;;;5031299;28;20893;-68
2022/11/23 11:07:58;;;;;;;1999.90;999.90;;;11.90;99.90;;;;;;5031141;28;20533;-68
2022/11/23 11:10:32;;;;;;;1999.90;999.90;;;12.00;99.90;;;;;;5031518;28;20547;-67
2022/11/23 11:12:58;;;;;;;1999.90;999.90;;;12.20;99.90;;;;;;5030261;28;20435;-67
2022/11/23 11:15:24;;;;;;;1999.90;999.90;;;12.40;99.90;;;;;;5031385;28;20404;-67
2022/11/23 11:17:56;;;;;;;1999.90;999.90;;;12.50;99.90;;;;;;5030855;28;20222;-67
2022/11/23 11:20:30;;;;;;;1999.90;999.90;;;12.70;99.90;;;;;;5030775;28;20403;-67
2022/11/23 11:22:59;;;;;;;1999.90;999.90;;;12.60;99.90;;;;;;5031331;28;20423;-67
2022/11/23 11:25:31;;;;;;;1999.90;999.90;;;12.70;99.90;;;;;;5031335;28;20406;-68
2022/11/23 11:27:58;;;;;;;1999.90;999.90;;;12.70;99.90;;;;;;5029811;28;20663;-67
2022/11/23 11:30:28;;;;;;;1999.90;999.90;;;12.70;99.90;;;;;;5031201;28;20451;-68
2022/11/23 11:33:16;;;;;;;1999.90;999.90;;;12.70;99.90;;;;;;5031173;28;20424;-68
2022/11/23 11:35:47;;;;;;;1999.90;999.90;;;12.50;99.90;;;;;;5030788;28;20403;-67
2022/11/23 11:38:28;;;;;;;1999.90;999.90;;;12.50;99.90;;;;;;5031016;28;20395;-67
2022/11/23 11:40:58;;;;;;;1999.90;999.90;;;12.40;99.90;;;;;;5034934;28;20839;-69
2022/11/23 11:43:28;;;;;;;1999.90;999.90;;;12.40;99.90;;;;;;5034385;28;20480;-68
2022/11/23 11:45:58;;;;;;;1999.90;999.90;;;12.60;99.90;;;;;;5034862;28;20407;-68
2022/11/23 11:48:39;;;;;;;1999.90;999.90;;;12.50;99.90;;;;;;5034485;28;20963;-67
2022/11/23 11:51:20;;;;;;;1999.90;999.90;;;12.50;99.90;;;;;;5034373;28;20427;-67
2022/11/23 11:54:00;;;;;;;1999.90;999.90;;;12.70;99.90;;;;;;5034787;28;20403;-67
2022/11/23 11:56:45;;;;;;;1999.90;999.90;;;12.70;99.90;;;;;;5034434;28;20395;-69
2022/11/23 11:59:41;;;;;;;1999.90;999.90;;;12.50;99.90;;;;;;5034481;28;20409;-69
2022/11/23 12:02:28;;;;;;;1999.90;999.90;;;12.40;99.90;;;;;;5034513;28;20411;-69
2022/11/23 12:05:15;;;;;;;1999.90;999.90;;;12.20;99.90;;;;;;5034181;28;20402;-70
2022/11/23 12:07:49;;;;;;;1999.90;999.90;;;12.40;99.90;;;;;;5034004;28;20483;-70
2022/11/23 12:10:20;;;;;;;1999.90;999.90;;;12.60;99.90;;;;;;5034466;28;20418;-69